Anselmo, NE (68813)

10:39 AM CDT on August 04, 2015 (GMT -0500)
Broken Bow Municipal | | Change Station
CLOSE
Current Station
Airport
Location: Broken Bow,
Elevation: 2546 ft
Nearby Weather Stations

Elev 2546 ft 41.44 °N, 99.64 °W | Updated 46 minutes ago

Overcast
Overcast
72 °F
Feels Like 72 °F
N
15
Wind Variable Wind from East
Gusts 25 mph

Today
High -- | Low -- °F
--% Chance of Precip.
Yesterday
High -- | Low -- °F
Precip. -- in
6:36 AM 8:53 PM
Waning Gibbous, 77% visible
Pressure 29.95 in
Visibility 10.0 miles
Clouds Overcast 5000 ft
Dew Point 60 °F
Humidity 66%
Rainfall 0.00 in
Snow Depth Not available.
UV 1 out of 12
Pollen 7.90 out of 12
Air Quality Not available.
Flu Activity Not available.
METAR KBBW 041453Z AUTO 09013G22KT 10SM OVC050 22/16 A3002 RMK AO2 SLP142 T02220156 58001

More Conditions Fewer Conditions

Pressure 29.95 in
Visibility 10.0 miles
Clouds Overcast 5000 ft
Dew Point 60 °F
Humidity 66%
Rainfall 0.00 in
Snow Depth Not available.
UV 1 out of 12
Pollen 7.90 out of 12
Air Quality Not available.
Flu Activity Not available.
METAR KBBW 041453Z AUTO 09013G22KT 10SM OVC050 22/16 A3002 RMK AO2 SLP142 T02220156 58001

More Conditions Fewer Conditions

Nowcast | as of 9:55 am CDT on August 4, 2015

Scattered thunderstorms are expected to continue developing over southwest Nebraska and into the sandhills through noon CDT. A few storms may become strong with heavy rain...small hail and wind gusts to 40 mph through the morning hours and may affect portions of the Interstate 80 corridor from Brady to Ogallala...and Highway 83 from Curtis to Stapleton. As the day progresses...storm intensity is expected to increase and there is a slight chance for severe thunderstorms across portions of southwest Nebraska into the afternoon hours.

×

10-Day Weather Forecast

×

Almanac

Astronomy

Aug. 04, 2015 Rise Set
Actual Time
Civil Twilight
Nautical Twilight
Astronomical Twilight
Moon
Length of Visible Light
Length of Day
Tomorrow will be .
, % of the Moon is Illuminated

Today's Extremes

State Highs State Lows

Community

WunderPhotos

Upload Photos

1,843,905 photos uploaded!

WunderBlogs® & News

Nearby

Air Quality

  Air Quality AQ Index Pollutant
Not available.

Snow Depth

Station Depth Elevation

Earthquake Activity

City Distance Mag. Time & Date
Minimum magnitude displayed is 2.5.

Coastal Water Temperatures

Place Temperature

Stations

Nearby Weather Stations

Station Location Temp. Windchill Dew Point Humidity Wind Precip. Elev Updated Type